createdAt,value
2023-01-20T05:17:40.087Z,99799.00
2023-01-20T05:20:06.933Z,99797.28
2023-01-20T05:22:33.500Z,99812.84
2023-01-20T05:25:00.271Z,99808.50
2023-01-20T05:27:26.768Z,99804.19
2023-01-20T05:30:09.161Z,99817.19
2023-01-20T05:32:36.865Z,99817.84
2023-01-20T05:35:03.990Z,99817.09
2023-01-20T05:37:30.458Z,99818.88
2023-01-20T05:39:56.961Z,99819.75
2023-01-20T05:42:23.477Z,99823.22
2023-01-20T05:44:51.094Z,99825.84
2023-01-20T05:47:17.638Z,99821.53
2023-01-20T05:49:44.344Z,99837.94
2023-01-20T05:52:10.858Z,99837.09
2023-01-20T05:54:37.383Z,99841.41
2023-01-20T05:57:05.378Z,99851.78
2023-01-20T05:59:31.969Z,99848.34
2023-01-20T06:02:07.546Z,99852.69
2023-01-20T06:04:34.207Z,99856.97
2023-01-20T06:07:00.831Z,99857.00
2023-01-20T06:09:27.350Z,99853.53
2023-01-20T06:11:53.859Z,99864.75
2023-01-20T06:14:20.357Z,99866.50
2023-01-20T06:16:49.992Z,99868.25
2023-01-20T06:19:16.535Z,99876.84
2023-01-20T06:21:46.751Z,99874.31
2023-01-20T06:24:13.936Z,99880.28
2023-01-20T06:26:40.615Z,99882.06
2023-01-20T06:29:08.204Z,99889.00
2023-01-20T06:31:34.756Z,99883.84
2023-01-20T06:34:13.907Z,99889.03
2023-01-20T06:36:40.496Z,99891.59
2023-01-20T06:39:06.971Z,99895.94
2023-01-20T06:41:33.719Z,99904.59
2023-01-20T06:44:04.486Z,99908.91
2023-01-20T06:46:30.992Z,99913.13
2023-01-20T06:49:00.598Z,99908.00
2023-01-20T06:51:29.581Z,99911.38
2023-01-20T06:53:59.218Z,99920.81
2023-01-20T06:56:25.854Z,99919.59
2023-01-20T06:58:52.628Z,99937.75
2023-01-20T07:01:27.069Z,99938.06
2023-01-20T07:03:58.892Z,99932.88
2023-01-20T07:06:38.428Z,99933.81
2023-01-20T07:09:11.897Z,99931.22
2023-01-20T07:11:39.927Z,99933.94
2023-01-20T07:14:28.271Z,99937.44
2023-01-20T07:16:54.751Z,99936.56
2023-01-20T07:19:21.329Z,99933.13
2023-01-20T07:21:50.002Z,99940.88
2023-01-20T07:24:17.802Z,99942.63
2023-01-20T07:26:48.304Z,99946.13
2023-01-20T07:29:18.029Z,99948.75
2023-01-20T07:31:47.924Z,99947.03
2023-01-20T07:34:14.471Z,99962.53
2023-01-20T07:36:46.144Z,99963.47
2023-01-20T07:39:13.136Z,99967.81
2023-01-20T07:41:39.763Z,99975.53
2023-01-20T07:44:06.267Z,99972.13
2023-01-20T07:46:32.752Z,99973.88
2023-01-20T07:48:59.464Z,99971.31
2023-01-20T07:51:26.086Z,99973.03
2023-01-20T07:53:53.648Z,99970.44
2023-01-20T07:56:25.835Z,99983.41
2023-01-20T07:58:53.835Z,99986.88
2023-01-20T08:01:23.330Z,99982.56
2023-01-20T08:03:50.677Z,99990.38
2023-01-20T08:06:19.817Z,99992.94
2023-01-20T08:08:49.009Z,99999.03
2023-01-20T08:11:19.268Z,99997.31
2023-01-20T08:13:46.584Z,99993.84
2023-01-20T08:16:16.061Z,99997.28
2023-01-20T08:18:42.851Z,100003.38
2023-01-20T08:21:21.051Z,100000.78
2023-01-20T08:23:48.036Z,100009.41
2023-01-20T08:26:14.948Z,100013.75
2023-01-20T08:28:41.523Z,99998.19
2023-01-20T08:31:10.782Z,100003.38
2023-01-20T08:33:42.997Z,100012.03
2023-01-20T08:36:15.083Z,100007.66
2023-01-20T08:38:42.166Z,100010.31
2023-01-20T08:41:18.028Z,100020.63
2023-01-20T08:43:50.739Z,100024.94
2023-01-20T08:46:21.180Z,100024.09
2023-01-20T08:48:49.154Z,100034.28
2023-01-20T08:51:24.346Z,100028.25
2023-01-20T08:53:51.615Z,100024.09
2023-01-20T08:56:19.162Z,100030.69
2023-01-20T08:58:46.833Z,100037.63
2023-01-20T09:01:19.362Z,100049.63
2023-01-20T09:04:03.048Z,100049.09
2023-01-20T09:06:37.172Z,100051.91
2023-01-20T09:09:04.669Z,100058.47
2023-01-20T09:11:31.575Z,100050.59
2023-01-20T09:13:58.337Z,100051.69
2023-01-20T09:16:26.907Z,100058.59
2023-01-20T09:18:53.488Z,100064.88
2023-01-20T09:21:20.981Z,100067.91
2023-01-20T09:23:48.285Z,100061.94
2023-01-20T09:26:33.440Z,100070.75
2023-01-20T09:29:08.891Z,100070.91
2023-01-20T09:31:38.778Z,100068.69
2023-01-20T09:34:05.851Z,100073.88
2023-01-20T09:36:33.427Z,100073.59
2023-01-20T09:39:18.582Z,100073.06
2023-01-20T09:42:07.831Z,100082.03
2023-01-20T09:44:48.322Z,100084.22
2023-01-20T09:47:46.786Z,100085.47
2023-01-20T09:50:50.853Z,100078.81
2023-01-20T09:53:38.818Z,100081.19
2023-01-20T09:56:14.108Z,100075.41
2023-01-20T09:59:01.627Z,100070.16
2023-01-20T10:01:40.114Z,100077.38
2023-01-20T10:04:20.529Z,100076.19
2023-01-20T10:06:55.251Z,100077.00
2023-01-20T10:09:34.054Z,100074.13
2023-01-20T10:12:15.782Z,100077.63
2023-01-20T10:14:49.040Z,100082.88
2023-01-20T10:17:30.987Z,100080.25
2023-01-20T10:20:21.567Z,100076.97
2023-01-20T10:22:56.439Z,100082.03
2023-01-20T10:25:37.030Z,100083.06
2023-01-20T10:28:28.918Z,100079.63
2023-01-20T10:31:03.129Z,100083.13
2023-01-20T10:33:44.167Z,100085.72
2023-01-20T10:36:19.401Z,100097.00
2023-01-20T10:39:02.806Z,100085.69
2023-01-20T10:41:34.895Z,100081.31
2023-01-20T10:44:01.787Z,100089.97
2023-01-20T10:46:52.643Z,100091.78
2023-01-20T10:49:29.374Z,100094.22
2023-01-20T10:52:22.526Z,100089.75
2023-01-20T10:55:05.861Z,100099.28
2023-01-20T10:57:35.098Z,100095.00
2023-01-20T11:00:15.582Z,100092.56
2023-01-20T11:02:42.246Z,100089.19
2023-01-20T11:05:19.563Z,100083.97
2023-01-20T11:07:49.337Z,100088.25
2023-01-20T11:10:27.229Z,100088.28
2023-01-20T11:12:59.637Z,100087.38
2023-01-20T11:15:32.386Z,100086.44
2023-01-20T11:18:14.328Z,100080.53
2023-01-20T11:21:02.515Z,100095.25
2023-01-20T11:23:37.573Z,100096.94
2023-01-20T11:26:17.960Z,100096.13
2023-01-20T11:29:10.368Z,100103.84
2023-01-20T11:31:53.466Z,100102.91
2023-01-20T11:34:35.109Z,100110.88
2023-01-20T11:37:04.801Z,100112.59
2023-01-20T11:39:57.854Z,100100.38
2023-01-20T11:42:41.603Z,100098.47
2023-01-20T11:45:23.866Z,100104.53
2023-01-20T11:48:16.332Z,100102.75
2023-01-20T11:50:56.141Z,100102.81
2023-01-20T11:53:28.002Z,100108.94
2023-01-20T11:55:59.765Z,100106.28
2023-01-20T11:58:29.111Z,100104.47
2023-01-20T12:01:05.317Z,100107.03
2023-01-20T12:03:43.974Z,100105.41
2023-01-20T12:06:15.181Z,100109.84
2023-01-20T12:08:56.693Z,100103.63
2023-01-20T12:11:37.236Z,100103.44
2023-01-20T12:14:25.399Z,100102.56
2023-01-20T12:17:17.522Z,100102.50
2023-01-20T12:20:06.587Z,100110.28
2023-01-20T12:23:01.252Z,100106.66
2023-01-20T12:25:33.726Z,100108.25
2023-01-20T12:28:13.916Z,100105.41
2023-01-20T12:30:49.781Z,100107.41
2023-01-20T12:33:55.971Z,100098.88
2023-01-20T12:36:31.640Z,100098.63
2023-01-20T12:39:17.753Z,100108.00
2023-01-20T12:42:02.992Z,100099.59
2023-01-20T12:44:51.020Z,100105.56
2023-01-20T12:47:20.529Z,100097.28
2023-01-20T12:50:23.781Z,100109.13
2023-01-20T12:53:21.392Z,100109.81
2023-01-20T12:56:23.824Z,100122.16
2023-01-20T12:58:58.591Z,100115.59
2023-01-20T13:01:52.467Z,100118.41
2023-01-20T13:04:50.587Z,100117.94
2023-01-20T13:07:26.152Z,100123.47
2023-01-20T13:10:18.508Z,100126.09
2023-01-20T13:13:14.603Z,100121.28
2023-01-20T13:16:04.134Z,100127.94
2023-01-20T13:18:49.286Z,100123.59
2023-01-20T13:21:21.154Z,100121.00
2023-01-20T13:23:49.975Z,100111.22
2023-01-20T13:26:17.338Z,100113.88
2023-01-20T13:28:52.680Z,100112.00
2023-01-20T13:31:45.942Z,100120.25
2023-01-20T13:37:32.138Z,100115.78
2023-01-20T13:40:00.337Z,100109.97
2023-01-20T13:42:38.024Z,100111.78
2023-01-20T13:45:14.402Z,100120.66
2023-01-20T13:47:59.476Z,100120.88
2023-01-20T13:50:39.420Z,100127.38
2023-01-20T13:53:21.185Z,100124.25
2023-01-20T13:55:48.202Z,100124.25
2023-01-20T13:58:15.522Z,100123.69
2023-01-20T14:00:42.713Z,100128.81
2023-01-20T14:03:21.712Z,100126.06
2023-01-20T14:05:58.250Z,100122.72
2023-01-20T14:08:26.912Z,100129.63
2023-01-20T14:11:07.665Z,100132.31
2023-01-20T14:13:34.216Z,100128.91
2023-01-20T14:16:01.333Z,100129.81
2023-01-20T14:18:28.072Z,100131.59
2023-01-20T14:20:59.772Z,100136.88
2023-01-20T14:23:30.831Z,100130.84
2023-01-20T14:25:59.417Z,100141.28
2023-01-20T14:28:26.011Z,100138.69
2023-01-20T14:31:12.595Z,100135.22
2023-01-20T14:34:15.143Z,100137.84
2023-01-20T14:36:41.785Z,100140.38
2023-01-20T14:39:21.780Z,100147.31
2023-01-20T14:41:59.619Z,100141.22
2023-01-20T14:44:29.068Z,100142.09
2023-01-20T14:46:58.273Z,100151.72
2023-01-20T14:49:32.886Z,100149.03
2023-01-20T14:52:02.131Z,100144.63
2023-01-20T14:54:34.624Z,100151.63
2023-01-20T14:57:17.566Z,100161.22
2023-01-20T14:59:44.332Z,100157.00
2023-01-20T15:02:30.086Z,100163.88
2023-01-20T15:04:56.902Z,100167.25
2023-01-20T15:07:24.566Z,100153.28
2023-01-20T15:10:01.701Z,100169.09
2023-01-20T15:12:33.931Z,100163.88
2023-01-20T15:15:06.583Z,100167.38
2023-01-20T15:17:33.128Z,100169.16
2023-01-20T15:19:59.648Z,100165.75
2023-01-20T15:22:27.359Z,100175.25
2023-01-20T15:24:54.745Z,100172.66
2023-01-20T15:27:33.424Z,100176.16
2023-01-20T15:30:23.575Z,100181.38
2023-01-20T15:32:51.381Z,100178.88
2023-01-20T15:35:22.992Z,100180.59
2023-01-20T15:37:50.453Z,100185.88
2023-01-20T15:40:19.959Z,100182.44
2023-01-20T15:42:49.156Z,100191.09
2023-01-20T15:45:17.303Z,100185.13
2023-01-20T15:47:46.057Z,100187.75
2023-01-20T15:50:15.674Z,100191.22
2023-01-20T15:52:42.745Z,100205.13
2023-01-20T15:55:19.804Z,100204.28
2023-01-20T15:57:51.006Z,100200.78
2023-01-20T16:00:23.396Z,100200.88
2023-01-20T16:02:50.510Z,100197.34
2023-01-20T16:05:17.808Z,100205.13
2023-01-20T16:07:46.920Z,100203.41
2023-01-20T16:10:19.584Z,100200.78
2023-01-20T16:12:46.869Z,100213.78
2023-01-20T16:15:16.326Z,100212.97
2023-01-20T16:17:43.056Z,100214.75
2023-01-20T16:20:39.180Z,100217.38
2023-01-20T16:23:05.691Z,100226.91
2023-01-20T16:25:32.769Z,100221.72
2023-01-20T16:27:59.412Z,100227.81
2023-01-20T16:30:29.276Z,100231.28
2023-01-20T16:32:55.829Z,100227.81
2023-01-20T16:35:23.686Z,100224.38
2023-01-20T16:37:53.031Z,100223.47
2023-01-20T16:40:22.185Z,100227.88
2023-01-20T16:42:48.804Z,100232.19
2023-01-20T16:45:23.627Z,100233.91
2023-01-20T16:47:50.575Z,100233.91
2023-01-20T16:50:18.493Z,100240.00
2023-01-20T16:52:45.606Z,100236.53
2023-01-20T16:55:13.554Z,100242.63
2023-01-20T16:57:40.230Z,100246.16
2023-01-20T17:00:07.814Z,100242.63
2023-01-20T17:02:34.311Z,100246.09
2023-01-20T17:05:00.866Z,100253.06
2023-01-20T17:07:27.721Z,100254.81
2023-01-20T17:09:54.305Z,100256.56
2023-01-20T17:12:22.955Z,100254.81
2023-01-20T17:14:49.493Z,100259.16
2023-01-20T17:17:16.094Z,100269.59
2023-01-20T17:19:53.495Z,100265.25
2023-01-20T17:22:46.700Z,100267.88
2023-01-20T17:25:16.775Z,100278.25
2023-01-20T17:27:44.913Z,100276.53
2023-01-20T17:30:11.638Z,100283.50
2023-01-20T17:32:38.245Z,100286.06
2023-01-20T17:35:05.244Z,100287.84
2023-01-20T17:37:31.867Z,100293.06
2023-01-20T17:40:09.457Z,100286.97
2023-01-20T17:42:35.978Z,100294.81
2023-01-20T17:45:03.462Z,100288.72
2023-01-20T17:47:31.459Z,100295.66
2023-01-20T17:49:58.156Z,100296.53
2023-01-20T17:52:24.754Z,100296.53
2023-01-20T17:54:54.693Z,100295.66
2023-01-20T17:57:21.227Z,100303.50
2023-01-20T17:59:47.800Z,100307.81
2023-01-20T18:02:14.472Z,100308.69
2023-01-20T18:04:40.952Z,100313.94
2023-01-20T18:07:07.552Z,100312.19
2023-01-20T18:09:34.340Z,100309.56
2023-01-20T18:12:00.815Z,100320.00
2023-01-20T18:14:27.281Z,100316.53
2023-01-20T18:16:54.422Z,100320.84
2023-01-20T18:19:20.986Z,100315.63
2023-01-20T18:21:47.498Z,100324.34
2023-01-20T18:24:14.004Z,100326.06
2023-01-20T18:26:42.667Z,100320.00
2023-01-20T18:29:16.676Z,100325.22
2023-01-20T18:31:44.747Z,100333.91
2023-01-20T18:34:13.137Z,100334.75
2023-01-20T18:36:41.856Z,100333.88
2023-01-20T18:39:16.479Z,100339.06
2023-01-20T18:41:43.855Z,100339.75
2023-01-20T18:44:12.609Z,100344.88
2023-01-20T18:46:39.170Z,100342.16
2023-01-20T18:49:09.290Z,100340.50
2023-01-20T18:51:36.387Z,100343.25
2023-01-20T18:54:09.604Z,100347.50
2023-01-20T18:56:36.513Z,100352.69
2023-01-20T18:59:05.699Z,100358.56
2023-01-20T19:01:35.895Z,100368.72
2023-01-20T19:04:04.187Z,100357.63
2023-01-20T19:06:34.765Z,100353.56
2023-01-20T19:09:01.744Z,100362.28
2023-01-20T19:11:34.413Z,100357.19
2023-01-20T19:14:00.927Z,100358.13
2023-01-20T19:16:32.460Z,100365.06
2023-01-20T19:19:04.972Z,100366.81
2023-01-20T19:21:33.122Z,100371.16
2023-01-20T19:24:05.646Z,100366.84
2023-01-20T19:26:34.979Z,100368.59
2023-01-20T19:29:11.804Z,100377.22
2023-01-20T19:31:39.647Z,100375.44
2023-01-20T19:34:10.283Z,100378.09
2023-01-20T19:36:37.282Z,100374.66
2023-01-20T19:39:05.066Z,100381.63
2023-01-20T19:41:39.670Z,100382.50
2023-01-20T19:44:06.671Z,100392.03
2023-01-20T19:46:35.583Z,100385.94
2023-01-20T19:49:02.509Z,100385.09
2023-01-20T19:51:31.257Z,100387.56
2023-01-20T19:53:59.778Z,100396.31
2023-01-20T19:56:28.287Z,100397.16
2023-01-20T19:58:55.048Z,100406.56
2023-01-20T20:01:24.315Z,100403.25
2023-01-20T20:03:51.968Z,100409.38
2023-01-20T20:06:29.182Z,100414.59
2023-01-20T20:09:00.923Z,100416.31
2023-01-20T20:11:28.865Z,100418.03
2023-01-20T20:13:59.581Z,100416.31
2023-01-20T20:16:28.193Z,100415.47
2023-01-20T20:18:55.843Z,100415.50
2023-01-20T20:21:23.114Z,100417.22
2023-01-20T20:23:51.294Z,100419.81
2023-01-20T20:26:18.783Z,100424.97
2023-01-20T20:28:45.516Z,100426.69
2023-01-20T20:31:12.262Z,100422.38
2023-01-20T20:33:38.815Z,100423.25
2023-01-20T20:36:09.741Z,100428.44
2023-01-20T20:38:40.167Z,100431.84
2023-01-20T20:41:08.603Z,100428.38
2023-01-20T20:43:36.631Z,100430.94
2023-01-20T20:46:05.430Z,100430.97
2023-01-20T20:48:33.670Z,100431.00
2023-01-20T20:51:11.911Z,100438.75
2023-01-20T20:53:39.802Z,100441.34
2023-01-20T20:56:08.959Z,100443.06
2023-01-20T20:58:36.562Z,100450.00
2023-01-20T21:01:08.959Z,100446.56
2023-01-20T21:04:03.546Z,100454.41
2023-01-20T21:06:31.338Z,100457.91
2023-01-20T21:08:58.792Z,100449.19
2023-01-20T21:11:25.833Z,100457.81
2023-01-20T21:13:53.135Z,100462.16
2023-01-20T21:16:23.602Z,100458.72
2023-01-20T21:18:52.443Z,100464.84
2023-01-20T21:21:20.079Z,100469.06
2023-01-20T21:23:55.148Z,100468.25
2023-01-20T21:26:22.929Z,100474.28
2023-01-20T21:28:49.654Z,100470.72
2023-01-20T21:31:19.262Z,100473.41
2023-01-20T21:33:53.822Z,100472.50
2023-01-20T21:36:21.492Z,100473.44
2023-01-20T21:38:48.287Z,100473.53
2023-01-20T21:41:15.597Z,100469.97
2023-01-20T21:44:02.986Z,100475.25
2023-01-20T21:46:39.182Z,100480.31
2023-01-20T21:49:25.700Z,100482.00
2023-01-20T21:52:14.955Z,100481.16
2023-01-20T21:54:41.898Z,100492.34
2023-01-20T21:57:12.473Z,100491.34
2023-01-20T21:59:39.310Z,100488.72
2023-01-20T22:02:07.131Z,100492.34
2023-01-20T22:04:34.110Z,100501.13
2023-01-20T22:07:06.377Z,100500.22
2023-01-20T22:09:34.092Z,100506.38
2023-01-20T22:12:00.585Z,100514.06
2023-01-20T22:14:27.252Z,100514.81
2023-01-20T22:16:53.826Z,100522.78
2023-01-20T22:19:20.282Z,100527.22
2023-01-20T22:21:46.783Z,100530.53
2023-01-20T22:24:13.285Z,100535.00
2023-01-20T22:26:40.651Z,100541.03
2023-01-20T22:29:10.809Z,100545.38
2023-01-20T22:31:37.415Z,100554.97
2023-01-20T22:34:05.187Z,100552.38
2023-01-20T22:36:32.936Z,100549.66
2023-01-20T22:38:59.753Z,100555.75
2023-01-20T22:41:30.674Z,100557.53
2023-01-20T22:43:58.204Z,100562.75
2023-01-20T22:46:26.996Z,100561.06
2023-01-20T22:48:56.058Z,100563.63
2023-01-20T22:51:27.937Z,100567.13
2023-01-20T22:53:56.007Z,100570.38
2023-01-20T22:56:25.255Z,100583.41
2023-01-20T22:58:51.898Z,100580.03
